This is the latest recevied weather packets stored in our database for station/object DG0PX-12. If no packets are shown the sender has not sent any weather packets the latest 10 day(s).
| Time | Temp. | Humidity | Pressure | Rain* | Wind** | Luminosity | Snow |
|---|---|---|---|---|---|---|---|
| 1777964433 | 17.22° C | 50% | 941.7 hPa | - | - | - | - |
| 1777963533 | 18.33° C | 50% | 941.6 hPa | - | - | - | - |
| 1777962633 | 18.89° C | 49% | 941.8 hPa | - | - | - | - |
| 1777961732 | 18.33° C | 50% | 941.8 hPa | - | - | - | - |
| 1777960832 | 16.67° C | 54% | 941.8 hPa | - | - | - | - |
| 1777959932 | 16.11° C | 58% | 941.9 hPa | - | - | - | - |
| 1777959032 | 14.44° C | 64% | 942 hPa | - | - | - | - |
| 1777958132 | 12.78° C | 73% | 942 hPa | - | - | - | - |
| 1777957232 | 12.78° C | 75% | 942.1 hPa | - | - | - | - |
| 1777956332 | 12.78° C | 71% | 942.1 hPa | - | - | - | - |
| 1777955432 | 11.67° C | 77% | 941.9 hPa | - | - | - | - |
| 1777954532 | 12.22° C | 76% | 942.1 hPa | - | - | - | - |
| 1777953632 | 12.22° C | 76% | 942 hPa | - | - | - | - |
| 1777952732 | 11.67° C | 77% | 942.2 hPa | - | - | - | - |
| 1777951832 | 12.78° C | 73% | 942.3 hPa | - | - | - | - |
| 1777950932 | 12.78° C | 75% | 942.3 hPa | - | - | - | - |
| 1777950032 | 12.78° C | 76% | 942.4 hPa | - | - | - | - |
| 1777949132 | 12.78° C | 74% | 942.5 hPa | - | - | - | - |
| 1777948232 | 13.33° C | 74% | 942.8 hPa | - | - | - | - |
| 1777947331 | 13.89° C | 74% | 942.7 hPa | - | - | - | - |
| 1777946432 | 13.33° C | 76% | 942.8 hPa | - | - | - | - |
| 1777945531 | 13.89° C | 71% | 942.9 hPa | - | - | - | - |
| 1777944631 | 13.89° C | 72% | 943 hPa | - | - | - | - |
| 1777943731 | 14.44° C | 70% | 943.1 hPa | - | - | - | - |
| 1777942831 | 16.11° C | 63% | 943.2 hPa | - | - | - | - |
* Rain since midnight (hover to see other rain measurements)
** Current wind speed in m/s (hover to see current wind gust speed)